createdAt,value
2022-10-12T00:01:07.538Z,29.50
2022-10-12T00:03:36.618Z,28.97
2022-10-12T00:06:13.143Z,35.13
2022-10-12T00:08:42.353Z,34.17
2022-10-12T00:11:16.236Z,29.70
2022-10-12T00:13:43.276Z,32.93
2022-10-12T00:16:13.762Z,31.67
2022-10-12T00:18:40.947Z,30.40
2022-10-12T00:21:15.060Z,32.07
2022-10-12T00:23:44.808Z,34.07
2022-10-12T00:26:21.387Z,26.27
2022-10-12T00:28:53.800Z,29.80
2022-10-12T00:31:21.243Z,34.57
2022-10-12T00:33:49.643Z,32.63
2022-10-12T00:36:30.070Z,35.13
2022-10-12T00:38:57.260Z,31.70
2022-10-12T00:41:40.042Z,37.97
2022-10-12T00:44:40.059Z,26.67
2022-10-12T00:47:32.247Z,35.33
2022-10-12T00:50:35.331Z,28.17
2022-10-12T00:53:21.368Z,28.03
2022-10-12T00:56:01.260Z,28.13
2022-10-12T00:58:32.975Z,31.97
2022-10-12T01:01:06.288Z,30.93
2022-10-12T01:03:35.816Z,33.13
2022-10-12T01:06:03.802Z,29.77
2022-10-12T01:08:30.924Z,30.93
2022-10-12T01:10:58.692Z,34.40
2022-10-12T01:13:26.592Z,28.57
2022-10-12T01:16:46.475Z,34.77
2022-10-12T01:20:22.960Z,33.30
2022-10-12T01:23:17.497Z,28.93
2022-10-12T01:26:31.512Z,37.10
2022-10-12T01:29:55.400Z,28.87
2022-10-12T01:33:21.896Z,29.37
2022-10-12T01:36:07.016Z,30.00
2022-10-12T01:39:46.908Z,30.97
2022-10-12T01:42:44.461Z,30.70
2022-10-12T01:45:19.841Z,33.93
2022-10-12T01:47:53.493Z,33.70
2022-10-12T01:50:31.808Z,29.23
2022-10-12T01:53:27.812Z,35.40
2022-10-12T01:56:27.444Z,31.37
2022-10-12T01:59:30.204Z,37.17
2022-10-12T02:02:32.808Z,29.13
2022-10-12T02:05:32.649Z,37.50
2022-10-12T02:08:27.171Z,29.17
2022-10-12T02:11:07.746Z,38.70
2022-10-12T02:13:57.041Z,36.70
2022-10-12T02:16:35.421Z,36.67
2022-10-12T02:19:09.225Z,33.03
2022-10-12T02:21:36.421Z,32.87
2022-10-12T02:24:10.020Z,38.73
2022-10-12T02:26:44.574Z,33.23
2022-10-12T02:29:23.018Z,30.67
2022-10-12T02:32:31.413Z,40.77
2022-10-12T02:35:12.925Z,32.73
2022-10-12T02:37:56.561Z,35.97
2022-10-12T02:40:41.386Z,31.80
2022-10-12T02:43:28.050Z,30.80
2022-10-12T02:46:01.202Z,36.03
2022-10-12T02:48:30.130Z,35.90
2022-10-12T02:50:59.090Z,41.60
2022-10-12T02:53:30.425Z,31.33
2022-10-12T02:56:16.697Z,35.77
2022-10-12T02:58:47.078Z,31.07
2022-10-12T03:01:16.948Z,33.47
2022-10-12T03:03:45.397Z,33.70
2022-10-12T03:06:13.122Z,36.40
2022-10-12T03:08:40.087Z,37.40
2022-10-12T03:11:12.874Z,41.73
2022-10-12T03:13:39.785Z,36.33
2022-10-12T03:16:11.862Z,37.30
2022-10-12T03:18:39.068Z,32.47
2022-10-12T03:21:06.639Z,42.90
2022-10-12T03:23:33.538Z,39.73
2022-10-12T03:26:00.496Z,39.00
2022-10-12T03:28:27.533Z,38.40
2022-10-12T03:30:55.471Z,36.03
2022-10-12T03:33:22.530Z,34.07
2022-10-12T03:35:50.055Z,38.00
2022-10-12T03:38:19.162Z,36.63
2022-10-12T03:40:47.158Z,32.67
2022-10-12T03:43:14.415Z,33.27
2022-10-12T03:45:41.470Z,39.67
2022-10-12T03:48:08.708Z,33.47
2022-10-12T03:50:36.603Z,32.60
2022-10-12T03:53:06.608Z,42.27
2022-10-12T03:55:34.242Z,39.00
2022-10-12T03:58:01.536Z,36.97
2022-10-12T04:00:28.589Z,43.43
2022-10-12T04:02:56.125Z,41.00
2022-10-12T04:05:23.532Z,43.23
2022-10-12T04:07:51.197Z,39.30
2022-10-12T04:10:18.268Z,33.17
2022-10-12T04:12:46.591Z,37.67
2022-10-12T04:15:14.683Z,35.70
2022-10-12T04:17:41.907Z,31.90
2022-10-12T04:20:11.324Z,35.83
2022-10-12T04:22:39.723Z,37.53
2022-10-12T04:25:07.390Z,37.37
2022-10-12T04:27:34.541Z,37.90
2022-10-12T04:30:01.506Z,38.73
2022-10-12T04:32:28.352Z,35.00
2022-10-12T04:34:55.276Z,43.17
2022-10-12T04:37:22.124Z,44.67
2022-10-12T04:39:49.067Z,34.07
2022-10-12T04:42:15.905Z,38.27
2022-10-12T04:44:42.758Z,48.87
2022-10-12T04:47:09.716Z,47.00
2022-10-12T04:49:36.652Z,42.60
2022-10-12T04:52:03.970Z,35.57
2022-10-12T04:54:32.732Z,38.40
2022-10-12T04:56:59.925Z,36.47
2022-10-12T04:59:27.662Z,40.10
2022-10-12T05:01:54.622Z,43.90
2022-10-12T05:04:21.842Z,47.87
2022-10-12T05:06:48.826Z,36.90
2022-10-12T05:09:17.178Z,37.30
2022-10-12T05:11:44.525Z,37.83
2022-10-12T05:14:11.612Z,36.07
2022-10-12T05:16:38.470Z,41.87
2022-10-12T05:19:05.415Z,34.50
2022-10-12T05:21:33.365Z,43.63
2022-10-12T05:24:00.277Z,38.73
2022-10-12T05:26:27.316Z,32.07
2022-10-12T05:28:54.368Z,35.40
2022-10-12T05:31:21.263Z,38.80
2022-10-12T05:33:48.082Z,38.60
2022-10-12T05:36:15.172Z,36.90
2022-10-12T05:38:42.205Z,37.80
2022-10-12T05:41:09.156Z,35.30
2022-10-12T05:43:35.982Z,43.50
2022-10-12T05:46:02.976Z,37.50
2022-10-12T05:48:29.985Z,35.27
2022-10-12T05:50:57.109Z,36.93
2022-10-12T05:53:24.106Z,33.90
2022-10-12T05:56:00.068Z,44.73
2022-10-12T05:58:30.121Z,39.23
2022-10-12T06:01:08.198Z,41.83
2022-10-12T06:03:35.405Z,39.83
2022-10-12T06:06:04.547Z,41.40
2022-10-12T06:08:33.114Z,37.33
2022-10-12T06:11:00.563Z,43.60
2022-10-12T06:13:27.606Z,42.77
2022-10-12T06:15:54.931Z,47.40
2022-10-12T06:18:22.507Z,42.30
2022-10-12T06:21:08.859Z,39.83
2022-10-12T06:23:40.970Z,42.70
2022-10-12T06:26:07.897Z,35.13
2022-10-12T06:28:34.869Z,37.53
2022-10-12T06:31:02.002Z,37.20
2022-10-12T06:33:29.390Z,40.93
2022-10-12T06:35:56.766Z,35.93
2022-10-12T06:38:24.419Z,37.00
2022-10-12T06:40:53.174Z,36.03
2022-10-12T06:43:22.684Z,37.53
2022-10-12T06:45:50.118Z,41.63
2022-10-12T06:48:18.823Z,38.87
2022-10-12T06:50:47.763Z,34.67
2022-10-12T06:53:14.749Z,45.07
2022-10-12T06:55:41.871Z,34.90
2022-10-12T06:58:08.898Z,43.50
2022-10-12T07:00:36.243Z,48.57
2022-10-12T07:03:03.548Z,35.50
2022-10-12T07:05:30.567Z,39.13
2022-10-12T07:07:57.579Z,42.70
2022-10-12T07:10:25.163Z,34.90
2022-10-12T07:12:52.035Z,39.77
2022-10-12T07:15:19.469Z,46.33
2022-10-12T07:17:46.327Z,40.47
2022-10-12T07:20:13.359Z,40.97
2022-10-12T07:22:40.295Z,36.60
2022-10-12T07:25:08.203Z,36.80
2022-10-12T07:27:35.249Z,43.57
2022-10-12T07:30:02.784Z,36.20
2022-10-12T07:32:29.723Z,35.27
2022-10-12T07:34:59.447Z,38.70
2022-10-12T07:37:26.418Z,42.20
2022-10-12T07:39:57.069Z,28.30
2022-10-12T07:42:25.316Z,28.97
2022-10-12T07:44:52.456Z,30.70
2022-10-12T07:47:19.349Z,28.30
2022-10-12T07:49:46.258Z,27.13
2022-10-12T07:52:13.216Z,24.53
2022-10-12T07:54:40.135Z,25.00
2022-10-12T07:57:07.953Z,24.63
2022-10-12T07:59:34.809Z,22.13
2022-10-12T08:04:02.247Z,21.83
2022-10-12T08:06:34.159Z,22.53
2022-10-12T08:09:03.529Z,16.80
2022-10-12T08:11:30.448Z,19.00
2022-10-12T08:13:57.731Z,21.63
2022-10-12T08:16:24.764Z,18.33
2022-10-12T08:18:52.117Z,19.20
2022-10-12T08:21:19.595Z,19.17
2022-10-12T08:23:47.545Z,19.23
2022-10-12T08:26:16.050Z,15.73
2022-10-12T08:28:44.030Z,14.67
2022-10-12T08:31:15.359Z,18.17
2022-10-12T08:33:42.310Z,17.00
2022-10-12T08:36:13.026Z,18.43
2022-10-12T08:38:40.222Z,23.40
2022-10-12T08:41:35.009Z,17.07
2022-10-12T08:44:45.448Z,15.97
2022-10-12T08:47:34.294Z,18.10
2022-10-12T08:50:06.817Z,13.90
2022-10-12T08:53:03.756Z,16.43
2022-10-12T08:55:45.881Z,14.20
2022-10-12T08:58:31.527Z,16.13
2022-10-12T09:01:30.180Z,18.50
2022-10-12T09:04:48.949Z,17.83
2022-10-12T09:07:36.749Z,15.43
2022-10-12T09:10:26.751Z,19.53
2022-10-12T09:14:03.177Z,18.47
2022-10-12T09:16:43.213Z,16.00
2022-10-12T09:19:21.805Z,12.40
2022-10-12T09:21:50.246Z,14.57
2022-10-12T09:24:28.669Z,17.87
2022-10-12T09:27:05.946Z,17.67
2022-10-12T09:29:32.878Z,25.20
2022-10-12T09:32:33.174Z,15.93
2022-10-12T09:35:00.789Z,16.40
2022-10-12T09:37:35.302Z,17.70
2022-10-12T09:40:03.374Z,17.03
2022-10-12T09:42:32.682Z,14.37
2022-10-12T09:45:17.208Z,20.00
2022-10-12T09:48:24.590Z,15.30
2022-10-12T09:51:03.332Z,17.23
2022-10-12T09:53:48.746Z,16.37
2022-10-12T09:56:33.418Z,14.30
2022-10-12T09:59:07.535Z,14.73
2022-10-12T10:01:38.668Z,16.77
2022-10-12T10:04:25.471Z,14.10
2022-10-12T10:06:52.824Z,14.03
2022-10-12T10:09:35.978Z,15.67
2022-10-12T10:12:24.072Z,16.70
2022-10-12T10:14:56.625Z,15.20
2022-10-12T10:17:34.399Z,16.20
2022-10-12T10:20:07.919Z,19.83
2022-10-12T10:22:34.852Z,15.20
2022-10-12T10:25:02.444Z,12.60
2022-10-12T10:27:39.872Z,17.10
2022-10-12T10:30:29.957Z,12.70
2022-10-12T10:33:18.296Z,13.37
2022-10-12T10:36:21.454Z,16.40
2022-10-12T10:39:14.495Z,15.30
2022-10-12T10:41:43.298Z,16.10
2022-10-12T10:44:32.754Z,13.20
2022-10-12T10:47:12.599Z,13.90
2022-10-12T10:49:57.344Z,14.43
2022-10-12T10:52:35.992Z,14.60
2022-10-12T10:55:40.475Z,18.43
2022-10-12T10:58:43.519Z,20.00
2022-10-12T11:01:38.699Z,15.70
2022-10-12T11:04:32.672Z,14.63
2022-10-12T11:07:48.312Z,12.83
2022-10-12T11:10:49.708Z,15.10
2022-10-12T11:13:39.784Z,12.73
2022-10-12T11:16:43.713Z,11.67
2022-10-12T11:19:52.887Z,13.70
2022-10-12T11:22:32.753Z,14.30
2022-10-12T11:25:48.274Z,15.87
2022-10-12T11:28:16.991Z,12.90
2022-10-12T11:30:53.270Z,12.63
2022-10-12T11:33:30.133Z,12.60
2022-10-12T11:35:59.897Z,14.57
2022-10-12T11:38:54.317Z,16.77
2022-10-12T11:41:44.987Z,12.07
2022-10-12T11:44:44.958Z,15.10
2022-10-12T11:47:46.989Z,15.13
2022-10-12T11:50:42.505Z,13.90
2022-10-12T11:53:43.812Z,12.63
2022-10-12T11:56:38.809Z,13.93
2022-10-12T11:59:36.817Z,11.67
2022-10-12T12:02:24.258Z,14.33
2022-10-12T12:04:53.397Z,10.53
2022-10-12T12:07:40.906Z,11.80
2022-10-12T12:10:26.397Z,13.13
2022-10-12T12:13:27.106Z,13.33
2022-10-12T12:15:53.909Z,14.90
2022-10-12T12:18:24.933Z,12.00
2022-10-12T12:21:07.672Z,17.80
2022-10-12T12:23:57.110Z,11.50
2022-10-12T12:26:30.580Z,15.23
2022-10-12T12:29:26.662Z,11.70
2022-10-12T12:31:59.062Z,12.50
2022-10-12T12:34:28.598Z,11.17
2022-10-12T12:36:57.210Z,15.20
2022-10-12T12:39:34.817Z,15.83
2022-10-12T12:42:08.582Z,13.97
2022-10-12T12:44:45.495Z,16.00
2022-10-12T12:47:43.538Z,16.70
2022-10-12T12:50:23.214Z,12.80
2022-10-12T12:52:51.470Z,10.40
2022-10-12T12:56:04.047Z,11.07
2022-10-12T12:59:08.290Z,16.57
2022-10-12T13:02:21.815Z,13.10
2022-10-12T13:05:50.315Z,10.00
2022-10-12T13:08:51.449Z,11.40
2022-10-12T13:11:52.415Z,12.17
2022-10-12T13:15:15.531Z,16.43
2022-10-12T13:18:45.397Z,12.80
2022-10-12T13:21:17.646Z,9.90
2022-10-12T13:23:53.068Z,11.67
2022-10-12T13:26:28.986Z,12.90
2022-10-12T13:28:59.027Z,10.07
2022-10-12T13:31:42.640Z,11.87
2022-10-12T13:34:27.227Z,11.03
2022-10-12T13:37:11.575Z,16.37
2022-10-12T13:39:44.546Z,13.03
2022-10-12T13:42:26.933Z,13.33
2022-10-12T13:44:54.199Z,16.83
2022-10-12T13:47:34.304Z,11.67
2022-10-12T13:50:01.378Z,11.47
2022-10-12T13:52:34.056Z,13.70
2022-10-12T13:55:16.015Z,14.43
2022-10-12T13:57:48.301Z,11.70
2022-10-12T14:00:25.486Z,15.70
2022-10-12T14:03:06.092Z,18.70
2022-10-12T14:05:44.400Z,12.10
2022-10-12T14:08:26.052Z,11.93
2022-10-12T14:10:57.974Z,10.90
2022-10-12T14:13:32.142Z,14.93
2022-10-12T14:16:04.398Z,13.13
2022-10-12T14:18:47.015Z,13.43
2022-10-12T14:21:27.764Z,11.20
2022-10-12T14:24:08.230Z,13.50
2022-10-12T14:26:54.353Z,16.30
2022-10-12T14:29:39.317Z,22.80
2022-10-12T14:32:10.428Z,12.50
2022-10-12T14:34:48.568Z,17.23
2022-10-12T14:37:15.551Z,12.00
2022-10-12T14:39:47.177Z,11.53
2022-10-12T14:42:34.928Z,13.63
2022-10-12T14:45:06.523Z,18.27
2022-10-12T14:47:42.782Z,13.00
2022-10-12T14:50:19.415Z,15.93
2022-10-12T14:52:52.312Z,12.17
2022-10-12T14:55:25.466Z,12.23
2022-10-12T14:57:53.417Z,11.67
2022-10-12T15:00:28.584Z,14.47
2022-10-12T15:02:55.696Z,29.00
2022-10-12T15:05:26.249Z,11.40
2022-10-12T15:07:53.313Z,11.43
2022-10-12T15:10:23.552Z,10.90
2022-10-12T15:12:52.387Z,15.83
2022-10-12T15:15:49.085Z,12.30
2022-10-12T15:18:15.970Z,14.47
2022-10-12T15:20:46.910Z,19.13
2022-10-12T15:23:16.126Z,11.83
2022-10-12T15:25:56.130Z,20.47
2022-10-12T15:28:23.597Z,12.70
2022-10-12T15:31:16.507Z,14.27
2022-10-12T15:33:39.962Z,16.63
2022-10-12T15:36:10.103Z,13.40
2022-10-12T15:38:37.017Z,14.53
2022-10-12T15:41:04.870Z,10.40
2022-10-12T15:43:32.986Z,15.23
2022-10-12T15:46:01.641Z,11.73
2022-10-12T15:48:28.890Z,19.10
2022-10-12T15:50:55.932Z,12.50
2022-10-12T15:53:26.452Z,11.90
2022-10-12T15:55:55.670Z,13.83
2022-10-12T15:58:22.955Z,18.03
2022-10-12T16:00:50.600Z,12.90
2022-10-12T16:03:25.574Z,17.20
2022-10-12T16:05:53.656Z,12.27
2022-10-12T16:08:20.631Z,11.23
2022-10-12T16:10:48.175Z,15.50
2022-10-12T16:13:16.492Z,12.40
2022-10-12T16:15:44.222Z,16.73
2022-10-12T16:18:12.178Z,13.87
2022-10-12T16:20:41.250Z,12.43
2022-10-12T16:23:17.015Z,13.60
2022-10-12T16:25:44.191Z,12.90
2022-10-12T16:28:12.773Z,16.60
2022-10-12T16:30:42.062Z,13.57
2022-10-12T16:33:08.995Z,15.10
2022-10-12T16:35:35.934Z,16.97
2022-10-12T16:38:02.792Z,14.17
2022-10-12T16:40:29.655Z,14.37
2022-10-12T16:42:57.332Z,14.50
2022-10-12T16:45:25.520Z,11.67
2022-10-12T16:47:53.795Z,14.80
2022-10-12T16:50:24.253Z,12.33
2022-10-12T16:52:52.403Z,13.20
2022-10-12T16:55:20.407Z,12.77
2022-10-12T16:57:47.520Z,15.83
2022-10-12T17:00:19.416Z,23.47
2022-10-12T17:02:49.015Z,24.83
2022-10-12T17:05:16.057Z,20.80
2022-10-12T17:07:43.003Z,18.20
2022-10-12T17:10:10.188Z,18.37
2022-10-12T17:12:37.291Z,14.93
2022-10-12T17:15:05.808Z,16.80
2022-10-12T17:17:32.687Z,16.07
2022-10-12T17:19:59.576Z,23.47
2022-10-12T17:22:26.431Z,17.13
2022-10-12T17:24:53.407Z,21.67
2022-10-12T17:27:20.351Z,19.83
2022-10-12T17:29:47.493Z,24.23
2022-10-12T17:32:14.912Z,22.20
2022-10-12T17:34:44.913Z,21.70
2022-10-12T17:37:13.592Z,21.07
2022-10-12T17:39:47.809Z,26.27
2022-10-12T17:42:15.486Z,24.13
2022-10-12T17:44:42.600Z,19.40
2022-10-12T17:47:09.529Z,19.30
2022-10-12T17:49:36.536Z,24.60
2022-10-12T17:52:03.424Z,19.50
2022-10-12T17:54:31.992Z,28.00
2022-10-12T17:56:58.948Z,24.73
2022-10-12T17:59:26.596Z,19.50
2022-10-12T18:01:54.383Z,20.20
2022-10-12T18:04:21.897Z,19.03
2022-10-12T18:06:49.272Z,18.90
2022-10-12T18:09:16.198Z,25.33
2022-10-12T18:11:44.264Z,26.70
2022-10-12T18:14:13.013Z,21.07
2022-10-12T18:16:40.470Z,27.60
2022-10-12T18:19:11.233Z,24.17
2022-10-12T18:21:39.935Z,29.20
2022-10-12T18:24:16.071Z,24.23
2022-10-12T18:26:48.012Z,28.83
2022-10-12T18:29:15.397Z,29.43
2022-10-12T18:31:42.401Z,26.27
2022-10-12T18:34:10.449Z,24.70
2022-10-12T18:36:39.773Z,29.20
2022-10-12T18:39:06.845Z,29.90
2022-10-12T18:41:34.073Z,28.63
2022-10-12T18:44:02.474Z,17.80
2022-10-12T18:46:34.140Z,25.23
2022-10-12T18:49:05.171Z,23.53
2022-10-12T18:51:37.562Z,28.77
2022-10-12T18:54:05.729Z,27.00
2022-10-12T18:56:36.615Z,22.70
2022-10-12T18:59:05.558Z,23.70
2022-10-12T19:01:34.693Z,24.70
2022-10-12T19:04:03.386Z,25.83
2022-10-12T19:06:36.098Z,24.03
2022-10-12T19:09:04.466Z,29.60
2022-10-12T19:11:31.827Z,24.70
2022-10-12T19:14:07.598Z,21.83
2022-10-12T19:16:35.606Z,24.83
2022-10-12T19:19:15.872Z,23.23
2022-10-12T19:21:46.891Z,32.50
2022-10-12T19:24:15.326Z,30.63
2022-10-12T19:26:44.035Z,29.63
2022-10-12T19:29:11.479Z,24.50
2022-10-12T19:31:44.842Z,27.93
2022-10-12T19:34:15.877Z,24.73
2022-10-12T19:36:43.019Z,22.30
2022-10-12T19:39:23.677Z,27.67
2022-10-12T19:41:52.992Z,22.77
2022-10-12T19:44:20.943Z,26.77
2022-10-12T19:46:49.125Z,24.30
2022-10-12T19:49:18.917Z,27.67
2022-10-12T19:51:46.431Z,29.00
2022-10-12T19:54:15.526Z,34.60
2022-10-12T19:56:42.495Z,32.93
2022-10-12T19:59:09.602Z,34.77
2022-10-12T20:01:39.891Z,35.63
2022-10-12T20:04:09.876Z,41.73
2022-10-12T20:06:38.595Z,41.20
2022-10-12T20:09:07.853Z,36.77
2022-10-12T20:11:35.635Z,38.30
2022-10-12T20:14:02.679Z,40.80
2022-10-12T20:16:34.010Z,47.87
2022-10-12T20:19:03.762Z,49.37
2022-10-12T20:21:30.948Z,50.00
2022-10-12T20:23:57.795Z,51.90
2022-10-12T20:26:26.340Z,50.40
2022-10-12T20:28:54.791Z,54.93
2022-10-12T20:31:23.812Z,63.13
2022-10-12T20:33:55.853Z,50.00
2022-10-12T20:36:28.976Z,46.10
2022-10-12T20:38:58.639Z,50.43
2022-10-12T20:41:27.429Z,52.23
2022-10-12T20:44:00.347Z,46.60
2022-10-12T20:46:29.769Z,47.17
2022-10-12T20:49:01.632Z,48.60
2022-10-12T20:51:36.173Z,51.70
2022-10-12T20:54:05.731Z,63.23
2022-10-12T20:56:33.824Z,57.73
2022-10-12T20:59:01.469Z,57.17
2022-10-12T21:01:29.164Z,56.93
2022-10-12T21:03:56.618Z,63.90
2022-10-12T21:06:24.425Z,53.80
2022-10-12T21:08:57.318Z,55.03
2022-10-12T21:11:25.425Z,55.47
2022-10-12T21:13:53.041Z,56.57
2022-10-12T21:16:20.194Z,52.30
2022-10-12T21:18:47.641Z,54.83
2022-10-12T21:21:19.024Z,55.30
2022-10-12T21:24:00.559Z,53.77
2022-10-12T21:26:31.114Z,61.73
2022-10-12T21:29:01.892Z,56.97
2022-10-12T21:31:32.644Z,58.03
2022-10-12T21:34:06.850Z,67.07
2022-10-12T21:36:36.517Z,45.90
2022-10-12T21:39:11.659Z,59.33
2022-10-12T21:41:39.435Z,64.27
2022-10-12T21:44:06.569Z,54.83
2022-10-12T21:46:35.733Z,55.13
2022-10-12T21:49:07.795Z,60.30
2022-10-12T21:51:37.045Z,51.57
2022-10-12T21:54:05.916Z,58.20
2022-10-12T21:56:36.466Z,53.27
2022-10-12T21:59:05.458Z,53.93
2022-10-12T22:01:40.401Z,56.50
2022-10-12T22:04:14.679Z,47.60
2022-10-12T22:06:43.292Z,49.47
2022-10-12T22:09:18.931Z,52.67
2022-10-12T22:11:46.973Z,52.07
2022-10-12T22:14:18.927Z,49.63
2022-10-12T22:16:46.533Z,53.40
2022-10-12T22:19:19.661Z,53.60
2022-10-12T22:21:51.973Z,54.30
2022-10-12T22:24:20.262Z,55.17
2022-10-12T22:26:47.490Z,49.03
2022-10-12T22:29:14.437Z,48.57
2022-10-12T22:31:42.162Z,61.10
2022-10-12T22:34:10.214Z,57.37
2022-10-12T22:36:37.346Z,51.90
2022-10-12T22:39:04.562Z,58.13
2022-10-12T22:41:31.573Z,56.73
2022-10-12T22:43:58.485Z,50.57
2022-10-12T22:46:26.658Z,56.43
2022-10-12T22:48:54.456Z,53.90
2022-10-12T22:51:41.678Z,60.37
2022-10-12T22:54:09.711Z,57.73
2022-10-12T22:56:36.772Z,54.53
2022-10-12T22:59:06.906Z,58.50
2022-10-12T23:01:35.824Z,59.53
2022-10-12T23:04:02.900Z,49.90
2022-10-12T23:06:29.960Z,53.50
2022-10-12T23:08:57.059Z,50.43
2022-10-12T23:11:28.606Z,48.73
2022-10-12T23:13:58.074Z,50.70
2022-10-12T23:16:30.783Z,43.83
2022-10-12T23:19:03.959Z,52.60
2022-10-12T23:21:34.773Z,45.77
2022-10-12T23:24:04.760Z,47.40
2022-10-12T23:26:32.231Z,48.90
2022-10-12T23:28:59.647Z,48.93
2022-10-12T23:31:30.514Z,46.30
2022-10-12T23:34:05.828Z,42.77
2022-10-12T23:36:34.100Z,47.17
2022-10-12T23:39:04.637Z,45.10
2022-10-12T23:41:31.595Z,47.63
2022-10-12T23:43:58.727Z,39.10
2022-10-12T23:46:26.168Z,45.47
2022-10-12T23:48:53.120Z,44.57
2022-10-12T23:51:20.120Z,50.43
2022-10-12T23:53:47.084Z,42.30
2022-10-12T23:56:14.199Z,38.47
2022-10-12T23:58:41.205Z,39.97
